Monroe, Nebraska
Current Conditions -  °F | °C
As of 2:35 AM on Sunday 21 Dec 2014 (Local Time) from KOLU Reporting Station
Overcast Overcast  
Wind Chill: 29°   Ceiling: 200
Heat Index: 36°   Visibility: 0.5mi
Dew Point: 32°   Wind: 8mph
Humidity: 87%   Direction: 200°SSW
Pressure: 29.92"   Gusts: NA
Location:  41.47°N, 97.6°W
Report Text: KOLU 210835Z AUTO 20007KT 1/2SM OVC002 02/00 A2992 RMK AO1
Loading
Personal Weather Stations






























Interactive Weather Map New forecast layout! Learn more

10-Day Weather Forecast

Advertisements
Track Severe Weather on mobile